PWSweather.com
Personal Weather Stations
Station Observations
CANDIOTINO
Barrio Candioti Norte, Santa FeAR 3000

Barrio Candioti NorteSanta FeAR 3000

Lat: -31.632778, Lon: -60.695556

Elevation: 69

Station Type: WH-1081

http://www.eltiempoensantafe.com.ar

High Low Average
Temperature 68.2°F20.1°C 62.1°F16.7°C 64.8°F18.2°C
Dew Point 67.9°F19.9°C 60.3°F15.7°C 63.7°F17.6°C
Winds 13.6 mph 21.9 kmh 1.6 mph 2.6 kmh 5.0 mph E8.0 kmh E
Wind Gusts 19.7 mph31.7 kmh 6.9 mph11.1 kmh 12.0 mph19.3 kmh
Humidity 99% 92% 96%
Pressure 29.96 in1014.6 mb 29.87 in1011.5 mb -
Precipitation 0.30 in7.6 mm - -
Hour Temp Dew Point Humidity Winds Wind Gusts Pressure Precip Precip Rate Daily Precip Total
12:00 AM 68.2°F20.1°C 67.9°F19.9°C 99% 6.9 mph SE11.1 kmh SE 15.2 mph24.5 kmh 29.96 in1014.6 mb 0.00 in0.0 mm 0.00 in0.0 mm 0.00 in0.0 mm
12:15 AM 68.0°F20.0°C 67.7°F19.8°C 99% 4.5 mph ESE7.2 kmh ESE 15.2 mph24.5 kmh 29.96 in1014.6 mb 0.00 in0.0 mm 0.00 in0.0 mm 0.00 in0.0 mm
12:30 AM 68.0°F20.0°C 67.7°F19.8°C 99% 6.9 mph ESE11.1 kmh ESE 13.6 mph21.9 kmh 29.96 in1014.6 mb 0.00 in0.0 mm 0.00 in0.0 mm 0.00 in0.0 mm
12:45 AM 68.0°F20.0°C 67.7°F19.8°C 99% 6.0 mph SE9.7 kmh SE 14.5 mph23.3 kmh 29.96 in1014.6 mb 0.00 in0.0 mm 0.00 in0.0 mm 0.00 in0.0 mm
01:00 AM 68.0°F20.0°C 67.7°F19.8°C 99% 6.0 mph ESE9.7 kmh ESE 11.4 mph18.3 kmh 29.95 in1014.2 mb 0.00 in0.0 mm 0.00 in0.0 mm 0.00 in0.0 mm
01:15 AM 68.0°F20.0°C 67.7°F19.8°C 99% 6.0 mph SE9.7 kmh SE 12.1 mph19.5 kmh 29.95 in1014.2 mb 0.00 in0.0 mm 0.00 in0.0 mm 0.00 in0.0 mm
01:30 AM 68.0°F20.0°C 67.7°F19.8°C 99% 5.4 mph E8.7 kmh E 10.7 mph17.2 kmh 29.94 in1013.9 mb 0.00 in0.0 mm 0.00 in0.0 mm 0.00 in0.0 mm
01:45 AM 68.0°F20.0°C 67.7°F19.8°C 99% 4.5 mph ESE7.2 kmh ESE 9.8 mph15.8 kmh 29.95 in1014.2 mb 0.00 in0.0 mm 0.00 in0.0 mm 0.00 in0.0 mm
02:00 AM 68.0°F20.0°C 67.7°F19.8°C 99% 6.0 mph E9.7 kmh E 13.0 mph20.9 kmh 29.94 in1013.9 mb 0.00 in0.0 mm 0.00 in0.0 mm 0.00 in0.0 mm
02:15 AM 67.8°F19.9°C 67.6°F19.8°C 99% 4.5 mph E7.2 kmh E 12.1 mph19.5 kmh 29.94 in1013.9 mb 0.00 in0.0 mm 0.00 in0.0 mm 0.00 in0.0 mm
02:30 AM 66.4°F19.1°C 66.1°F18.9°C 99% 9.2 mph ESE14.8 kmh ESE 14.5 mph23.3 kmh 29.94 in1013.9 mb 0.00 in0.0 mm 0.00 in0.0 mm 0.00 in0.0 mm
02:45 AM 65.5°F18.6°C 65.2°F18.4°C 99% 3.8 mph E6.1 kmh E 17.4 mph28.0 kmh 29.95 in1014.2 mb 0.00 in0.0 mm 0.00 in0.0 mm 0.00 in0.0 mm
03:00 AM 64.9°F18.3°C 64.7°F18.2°C 99% 9.8 mph SE15.8 kmh SE 15.9 mph25.6 kmh 29.94 in1013.9 mb 0.00 in0.0 mm 0.00 in0.0 mm 0.00 in0.0 mm
03:15 AM 64.4°F18.0°C 64.1°F17.8°C 99% 3.8 mph SE6.1 kmh SE 13.6 mph21.9 kmh 29.94 in1013.9 mb 0.00 in0.0 mm 0.00 in0.0 mm 0.00 in0.0 mm
03:30 AM 64.0°F17.8°C 63.2°F17.3°C 97% 5.4 mph ESE8.7 kmh ESE 15.9 mph25.6 kmh 29.93 in1013.5 mb 0.00 in0.0 mm 0.00 in0.0 mm 0.00 in0.0 mm
03:45 AM 63.3°F17.4°C 62.5°F16.9°C 97% 9.8 mph SE15.8 kmh SE 14.5 mph23.3 kmh 29.94 in1013.9 mb 0.00 in0.0 mm 0.00 in0.0 mm 0.00 in0.0 mm
04:00 AM 63.1°F17.3°C 62.3°F16.8°C 97% 10.7 mph ESE17.2 kmh ESE 14.5 mph23.3 kmh 29.93 in1013.5 mb 0.00 in0.0 mm 0.00 in0.0 mm 0.00 in0.0 mm
04:15 AM 63.1°F17.3°C 62.3°F16.8°C 97% 4.5 mph E7.2 kmh E 15.9 mph25.6 kmh 29.93 in1013.5 mb 0.00 in0.0 mm 0.00 in0.0 mm 0.00 in0.0 mm
04:30 AM 63.1°F17.3°C 62.3°F16.8°C 97% 10.7 mph SE17.2 kmh SE 16.8 mph27.0 kmh 29.93 in1013.5 mb 0.00 in0.0 mm 0.00 in0.0 mm 0.00 in0.0 mm
04:45 AM 63.0°F17.2°C 62.1°F16.7°C 97% 8.3 mph SE13.4 kmh SE 18.3 mph29.5 kmh 29.92 in1013.2 mb 0.00 in0.0 mm 0.00 in0.0 mm 0.00 in0.0 mm
05:00 AM 63.1°F17.3°C 62.3°F16.8°C 97% 6.9 mph E11.1 kmh E 13.6 mph21.9 kmh 29.93 in1013.5 mb 0.00 in0.0 mm 0.00 in0.0 mm 0.00 in0.0 mm
05:15 AM 62.6°F17.0°C 61.8°F16.6°C 97% 6.0 mph ESE9.7 kmh ESE 17.4 mph28.0 kmh 29.93 in1013.5 mb 0.00 in0.0 mm 0.00 in0.0 mm 0.00 in0.0 mm
05:30 AM 62.2°F16.8°C 61.1°F16.2°C 96% 5.4 mph SE8.7 kmh SE 13.0 mph20.9 kmh 29.93 in1013.5 mb 0.00 in0.0 mm 0.00 in0.0 mm 0.00 in0.0 mm
05:45 AM 62.2°F16.8°C 61.1°F16.2°C 96% 5.4 mph ESE8.7 kmh ESE 13.0 mph20.9 kmh 29.93 in1013.5 mb 0.01 in0.3 mm 0.04 in1.0 mm 0.01 in0.3 mm
06:00 AM 62.1°F16.7°C 60.6°F15.9°C 95% 12.1 mph E19.5 kmh E 15.2 mph24.5 kmh 29.93 in1013.5 mb 0.01 in0.3 mm 0.00 in0.0 mm 0.01 in0.3 mm
06:15 AM 62.1°F16.7°C 60.6°F15.9°C 95% 13.6 mph E21.9 kmh E 19.7 mph31.7 kmh 29.93 in1013.5 mb 0.01 in0.3 mm 0.00 in0.0 mm 0.01 in0.3 mm
06:30 AM 62.1°F16.7°C 60.3°F15.7°C 94% 5.4 mph E8.7 kmh E 15.2 mph24.5 kmh 29.92 in1013.2 mb 0.00 in0.0 mm 0.00 in0.0 mm 0.01 in0.3 mm
06:45 AM 62.2°F16.8°C 60.5°F15.8°C 94% 6.0 mph ESE9.7 kmh ESE 16.8 mph27.0 kmh 29.93 in1013.5 mb 0.00 in0.0 mm 0.00 in0.0 mm 0.01 in0.3 mm
07:00 AM 62.2°F16.8°C 60.5°F15.8°C 94% 6.0 mph SE9.7 kmh SE 15.2 mph24.5 kmh 29.93 in1013.5 mb 0.00 in0.0 mm 0.00 in0.0 mm 0.01 in0.3 mm
07:15 AM 62.4°F16.9°C 60.7°F15.9°C 94% 6.0 mph SE9.7 kmh SE 13.6 mph21.9 kmh 29.93 in1013.5 mb 0.00 in0.0 mm 0.00 in0.0 mm 0.01 in0.3 mm
07:30 AM 62.1°F16.7°C 60.3°F15.7°C 94% 8.3 mph ESE13.4 kmh ESE 13.6 mph21.9 kmh 29.93 in1013.5 mb 0.00 in0.0 mm 0.00 in0.0 mm 0.01 in0.3 mm
07:45 AM 62.1°F16.7°C 60.3°F15.7°C 94% 8.3 mph E13.4 kmh E 14.5 mph23.3 kmh 29.93 in1013.5 mb 0.00 in0.0 mm 0.00 in0.0 mm 0.01 in0.3 mm
08:00 AM 62.1°F16.7°C 60.3°F15.7°C 94% 4.5 mph E7.2 kmh E 13.6 mph21.9 kmh 29.93 in1013.5 mb 0.00 in0.0 mm 0.00 in0.0 mm 0.01 in0.3 mm
08:15 AM 62.4°F16.9°C 60.7°F15.9°C 94% 4.5 mph E7.2 kmh E 13.6 mph21.9 kmh 29.95 in1014.2 mb 0.00 in0.0 mm 0.00 in0.0 mm 0.01 in0.3 mm
08:30 AM 62.6°F17.0°C 60.6°F15.9°C 93% 3.1 mph SE5.0 kmh SE 14.5 mph23.3 kmh 29.94 in1013.9 mb 0.00 in0.0 mm 0.00 in0.0 mm 0.01 in0.3 mm
08:45 AM 62.4°F16.9°C 60.4°F15.8°C 93% 9.8 mph E15.8 kmh E 14.5 mph23.3 kmh 29.94 in1013.9 mb 0.00 in0.0 mm 0.00 in0.0 mm 0.01 in0.3 mm
09:00 AM 62.8°F17.1°C 60.4°F15.8°C 92% 5.4 mph SE8.7 kmh SE 11.4 mph18.3 kmh 29.94 in1013.9 mb 0.00 in0.0 mm 0.00 in0.0 mm 0.01 in0.3 mm
09:15 AM 62.8°F17.1°C 60.4°F15.8°C 92% 6.0 mph E9.7 kmh E 13.0 mph20.9 kmh 29.94 in1013.9 mb 0.00 in0.0 mm 0.00 in0.0 mm 0.01 in0.3 mm
09:30 AM 63.1°F17.3°C 60.8°F16.0°C 92% 3.8 mph E6.1 kmh E 9.2 mph14.8 kmh 29.94 in1013.9 mb 0.00 in0.0 mm 0.00 in0.0 mm 0.01 in0.3 mm
09:45 AM 63.5°F17.5°C 61.2°F16.2°C 92% 3.8 mph NE6.1 kmh NE 9.8 mph15.8 kmh 29.95 in1014.2 mb 0.00 in0.0 mm 0.00 in0.0 mm 0.01 in0.3 mm
10:00 AM 63.5°F17.5°C 61.2°F16.2°C 92% 6.0 mph NE9.7 kmh NE 13.6 mph21.9 kmh 29.94 in1013.9 mb 0.00 in0.0 mm 0.00 in0.0 mm 0.01 in0.3 mm
10:15 AM 63.5°F17.5°C 61.5°F16.4°C 93% 4.5 mph E7.2 kmh E 10.7 mph17.2 kmh 29.95 in1014.2 mb 0.00 in0.0 mm 0.00 in0.0 mm 0.01 in0.3 mm
10:30 AM 63.7°F17.6°C 61.6°F16.4°C 93% 4.5 mph E7.2 kmh E 12.1 mph19.5 kmh 29.95 in1014.2 mb 0.00 in0.0 mm 0.00 in0.0 mm 0.01 in0.3 mm
10:45 AM 63.9°F17.7°C 61.8°F16.6°C 93% 2.2 mph ENE3.5 kmh ENE 9.8 mph15.8 kmh 29.95 in1014.2 mb 0.00 in0.0 mm 0.00 in0.0 mm 0.01 in0.3 mm
11:00 AM 63.9°F17.7°C 62.1°F16.7°C 94% 4.5 mph E7.2 kmh E 9.2 mph14.8 kmh 29.96 in1014.6 mb 0.06 in1.5 mm 0.08 in2.0 mm 0.07 in1.8 mm
11:15 AM 63.1°F17.3°C 61.7°F16.5°C 95% 4.5 mph E7.2 kmh E 12.1 mph19.5 kmh 29.96 in1014.6 mb 0.09 in2.3 mm 0.12 in3.0 mm 0.11 in2.8 mm
11:30 AM 63.1°F17.3°C 62.0°F16.7°C 96% 7.6 mph SE12.2 kmh SE 10.7 mph17.2 kmh 29.96 in1014.6 mb 0.12 in3.0 mm 0.12 in3.0 mm 0.13 in3.3 mm
11:45 AM 63.5°F17.5°C 62.7°F17.1°C 97% 6.0 mph SE9.7 kmh SE 9.2 mph14.8 kmh 29.96 in1014.6 mb 0.18 in4.6 mm 0.24 in6.1 mm 0.19 in4.8 mm
12:00 PM 63.7°F17.6°C 62.8°F17.1°C 97% 2.2 mph E3.5 kmh E 8.3 mph13.4 kmh 29.94 in1013.9 mb 0.12 in3.0 mm 0.00 in0.0 mm 0.19 in4.8 mm
12:15 PM 63.9°F17.7°C 63.0°F17.2°C 97% 3.1 mph E5.0 kmh E 8.3 mph13.4 kmh 29.95 in1014.2 mb 0.13 in3.3 mm 0.04 in1.0 mm 0.24 in6.1 mm
12:30 PM 64.2°F17.9°C 63.4°F17.4°C 97% 3.1 mph E5.0 kmh E 9.2 mph14.8 kmh 29.94 in1013.9 mb 0.11 in2.8 mm 0.00 in0.0 mm 0.24 in6.1 mm
12:45 PM 64.2°F17.9°C 63.4°F17.4°C 97% 3.1 mph E5.0 kmh E 9.2 mph14.8 kmh 29.94 in1013.9 mb 0.05 in1.3 mm 0.00 in0.0 mm 0.24 in6.1 mm
01:00 PM 64.4°F18.0°C 63.8°F17.7°C 98% 2.2 mph ENE3.5 kmh ENE 9.2 mph14.8 kmh 29.93 in1013.5 mb 0.07 in1.8 mm 0.03 in0.8 mm 0.27 in6.9 mm
01:15 PM 64.8°F18.2°C 64.2°F17.9°C 98% 3.8 mph E6.1 kmh E 6.9 mph11.1 kmh 29.93 in1013.5 mb 0.05 in1.3 mm 0.00 in0.0 mm 0.28 in7.1 mm
01:30 PM 64.8°F18.2°C 64.2°F17.9°C 98% 2.2 mph E3.5 kmh E 9.8 mph15.8 kmh 29.93 in1013.5 mb 0.05 in1.3 mm 0.00 in0.0 mm 0.28 in7.1 mm
01:45 PM 65.3°F18.5°C 64.7°F18.2°C 98% 1.6 mph E2.6 kmh E 6.9 mph11.1 kmh 29.92 in1013.2 mb 0.05 in1.3 mm 0.00 in0.0 mm 0.28 in7.1 mm
02:00 PM 65.5°F18.6°C 64.9°F18.3°C 98% 2.2 mph ESE3.5 kmh ESE 8.3 mph13.4 kmh 29.91 in1012.9 mb 0.00 in0.0 mm 0.00 in0.0 mm 0.28 in7.1 mm
02:15 PM 65.8°F18.8°C 65.0°F18.3°C 97% 3.1 mph ESE5.0 kmh ESE 8.3 mph13.4 kmh 29.91 in1012.9 mb 0.00 in0.0 mm 0.00 in0.0 mm 0.28 in7.1 mm
02:30 PM 66.2°F19.0°C 64.8°F18.2°C 95% 3.1 mph E5.0 kmh E 9.8 mph15.8 kmh 29.90 in1012.5 mb 0.00 in0.0 mm 0.00 in0.0 mm 0.28 in7.1 mm
02:45 PM 66.2°F19.0°C 64.4°F18.0°C 94% 5.4 mph ESE8.7 kmh ESE 9.8 mph15.8 kmh 29.90 in1012.5 mb 0.00 in0.0 mm 0.00 in0.0 mm 0.28 in7.1 mm
03:00 PM 66.4°F19.1°C 64.9°F18.3°C 95% 2.2 mph SE3.5 kmh SE 9.2 mph14.8 kmh 29.91 in1012.9 mb 0.00 in0.0 mm 0.00 in0.0 mm 0.28 in7.1 mm
03:15 PM 66.4°F19.1°C 64.9°F18.3°C 95% 5.4 mph ESE8.7 kmh ESE 11.4 mph18.3 kmh 29.89 in1012.2 mb 0.00 in0.0 mm 0.00 in0.0 mm 0.28 in7.1 mm
03:30 PM 66.6°F19.2°C 65.1°F18.4°C 95% 2.2 mph E3.5 kmh E 9.8 mph15.8 kmh 29.89 in1012.2 mb 0.00 in0.0 mm 0.00 in0.0 mm 0.28 in7.1 mm
03:45 PM 66.4°F19.1°C 64.9°F18.3°C 95% 3.1 mph E5.0 kmh E 8.3 mph13.4 kmh 29.88 in1011.9 mb 0.01 in0.3 mm 0.04 in1.0 mm 0.30 in7.6 mm
04:00 PM 66.4°F19.1°C 65.2°F18.4°C 96% 4.5 mph E7.2 kmh E 9.8 mph15.8 kmh 29.88 in1011.9 mb 0.01 in0.3 mm 0.00 in0.0 mm 0.30 in7.6 mm
04:15 PM 66.6°F19.2°C 65.4°F18.6°C 96% 3.8 mph SE6.1 kmh SE 13.0 mph20.9 kmh 29.88 in1011.9 mb 0.01 in0.3 mm 0.00 in0.0 mm 0.30 in7.6 mm
04:30 PM 66.9°F19.4°C 65.5°F18.6°C 95% 3.8 mph ESE6.1 kmh ESE 9.2 mph14.8 kmh 29.88 in1011.9 mb 0.01 in0.3 mm 0.00 in0.0 mm 0.30 in7.6 mm
04:45 PM 67.3°F19.6°C 65.8°F18.8°C 95% 4.5 mph E7.2 kmh E 13.0 mph20.9 kmh 29.87 in1011.5 mb 0.00 in0.0 mm 0.00 in0.0 mm 0.30 in7.6 mm
05:00 PM 67.3°F19.6°C 65.8°F18.8°C 95% 4.5 mph E7.2 kmh E 10.7 mph17.2 kmh 29.88 in1011.9 mb 0.00 in0.0 mm 0.00 in0.0 mm 0.30 in7.6 mm
05:15 PM 66.6°F19.2°C 65.1°F18.4°C 95% 3.1 mph ESE5.0 kmh ESE 10.7 mph17.2 kmh 29.88 in1011.9 mb 0.00 in0.0 mm 0.00 in0.0 mm 0.30 in7.6 mm
05:30 PM 66.6°F19.2°C 65.1°F18.4°C 95% 3.1 mph E5.0 kmh E 12.1 mph19.5 kmh 29.89 in1012.2 mb 0.00 in0.0 mm 0.00 in0.0 mm 0.30 in7.6 mm
05:45 PM 66.6°F19.2°C 65.1°F18.4°C 95% 5.4 mph E8.7 kmh E 9.8 mph15.8 kmh 29.89 in1012.2 mb 0.00 in0.0 mm 0.00 in0.0 mm 0.30 in7.6 mm
06:00 PM 66.0°F18.9°C 64.9°F18.3°C 96% 6.0 mph ESE9.7 kmh ESE 11.4 mph18.3 kmh 29.89 in1012.2 mb 0.00 in0.0 mm 0.00 in0.0 mm 0.30 in7.6 mm
06:15 PM 65.5°F18.6°C 64.3°F17.9°C 96% 6.9 mph E11.1 kmh E 11.4 mph18.3 kmh 29.89 in1012.2 mb 0.00 in0.0 mm 0.00 in0.0 mm 0.30 in7.6 mm
06:30 PM 65.5°F18.6°C 64.3°F17.9°C 96% 6.0 mph ESE9.7 kmh ESE 13.0 mph20.9 kmh 29.89 in1012.2 mb 0.00 in0.0 mm 0.00 in0.0 mm 0.30 in7.6 mm
06:45 PM 65.5°F18.6°C 64.3°F17.9°C 96% 3.8 mph ESE6.1 kmh ESE 12.1 mph19.5 kmh 29.90 in1012.5 mb 0.00 in0.0 mm 0.00 in0.0 mm 0.30 in7.6 mm
07:00 PM 65.3°F18.5°C 64.2°F17.9°C 96% 5.4 mph ESE8.7 kmh ESE 12.1 mph19.5 kmh 29.90 in1012.5 mb 0.00 in0.0 mm 0.00 in0.0 mm 0.30 in7.6 mm
07:15 PM 65.1°F18.4°C 64.0°F17.8°C 96% 4.5 mph E7.2 kmh E 11.4 mph18.3 kmh 29.90 in1012.5 mb 0.00 in0.0 mm 0.00 in0.0 mm 0.30 in7.6 mm
07:30 PM 65.1°F18.4°C 64.0°F17.8°C 96% 3.8 mph ESE6.1 kmh ESE 10.7 mph17.2 kmh 29.91 in1012.9 mb 0.00 in0.0 mm 0.00 in0.0 mm 0.30 in7.6 mm
07:45 PM 65.3°F18.5°C 64.2°F17.9°C 96% 5.4 mph E8.7 kmh E 9.8 mph15.8 kmh 29.91 in1012.9 mb 0.00 in0.0 mm 0.00 in0.0 mm 0.30 in7.6 mm
08:00 PM 65.3°F18.5°C 64.2°F17.9°C 96% 3.1 mph E5.0 kmh E 9.8 mph15.8 kmh 29.91 in1012.9 mb 0.00 in0.0 mm 0.00 in0.0 mm 0.30 in7.6 mm
08:15 PM 65.3°F18.5°C 64.2°F17.9°C 96% 3.1 mph E5.0 kmh E 10.7 mph17.2 kmh 29.92 in1013.2 mb 0.00 in0.0 mm 0.00 in0.0 mm 0.30 in7.6 mm
08:30 PM 65.3°F18.5°C 64.2°F17.9°C 96% 5.4 mph ESE8.7 kmh ESE 11.4 mph18.3 kmh 29.91 in1012.9 mb 0.00 in0.0 mm 0.00 in0.0 mm 0.30 in7.6 mm
08:45 PM 65.5°F18.6°C 64.3°F17.9°C 96% 5.4 mph ESE8.7 kmh ESE 9.2 mph14.8 kmh 29.91 in1012.9 mb 0.00 in0.0 mm 0.00 in0.0 mm 0.30 in7.6 mm
09:00 PM 65.3°F18.5°C 64.2°F17.9°C 96% 6.0 mph ESE9.7 kmh ESE 11.4 mph18.3 kmh 29.91 in1012.9 mb 0.00 in0.0 mm 0.00 in0.0 mm 0.30 in7.6 mm
09:15 PM 65.3°F18.5°C 64.2°F17.9°C 96% 3.8 mph ESE6.1 kmh ESE 11.4 mph18.3 kmh 29.91 in1012.9 mb 0.00 in0.0 mm 0.00 in0.0 mm 0.30 in7.6 mm
09:30 PM 65.3°F18.5°C 64.2°F17.9°C 96% 4.5 mph E7.2 kmh E 11.4 mph18.3 kmh 29.91 in1012.9 mb 0.00 in0.0 mm 0.00 in0.0 mm 0.30 in7.6 mm
09:45 PM 65.3°F18.5°C 64.2°F17.9°C 96% 3.8 mph ESE6.1 kmh ESE 10.7 mph17.2 kmh 29.91 in1012.9 mb 0.00 in0.0 mm 0.00 in0.0 mm 0.30 in7.6 mm
10:00 PM 65.1°F18.4°C 64.0°F17.8°C 96% 7.6 mph ESE12.2 kmh ESE 9.8 mph15.8 kmh 29.91 in1012.9 mb 0.00 in0.0 mm 0.00 in0.0 mm 0.30 in7.6 mm
10:15 PM 65.1°F18.4°C 64.0°F17.8°C 96% 5.4 mph ESE8.7 kmh ESE 13.0 mph20.9 kmh 29.90 in1012.5 mb 0.00 in0.0 mm 0.00 in0.0 mm 0.30 in7.6 mm
10:30 PM 65.1°F18.4°C 64.0°F17.8°C 96% 3.8 mph ESE6.1 kmh ESE 10.7 mph17.2 kmh 29.90 in1012.5 mb 0.00 in0.0 mm 0.00 in0.0 mm 0.30 in7.6 mm
10:45 PM 65.1°F18.4°C 63.7°F17.6°C 95% 2.2 mph E3.5 kmh E 13.0 mph20.9 kmh 29.90 in1012.5 mb 0.00 in0.0 mm 0.00 in0.0 mm 0.30 in7.6 mm
11:00 PM 65.1°F18.4°C 63.7°F17.6°C 95% 3.1 mph E5.0 kmh E 9.2 mph14.8 kmh 29.91 in1012.9 mb 0.00 in0.0 mm 0.00 in0.0 mm 0.30 in7.6 mm
11:15 PM 65.3°F18.5°C 64.2°F17.9°C 96% 2.2 mph E3.5 kmh E 6.9 mph11.1 kmh 29.91 in1012.9 mb 0.00 in0.0 mm 0.00 in0.0 mm 0.30 in7.6 mm
11:30 PM 65.1°F18.4°C 64.0°F17.8°C 96% 2.2 mph SE3.5 kmh SE 6.9 mph11.1 kmh 29.92 in1013.2 mb 0.00 in0.0 mm 0.00 in0.0 mm 0.30 in7.6 mm
11:45 PM 64.9°F18.3°C 63.8°F17.7°C 96% 3.1 mph SE5.0 kmh SE 6.9 mph11.1 kmh 29.92 in1013.2 mb 0.00 in0.0 mm 0.00 in0.0 mm 0.30 in7.6 mm